KHST

Homestead ARB Airport

Homestead, Florida, USA
METAR KHST 201156Z AUTO 33004KT 10SM SCT180 OVC230 15/15 A3019 RMK AO2 SLP226 T01540154 10159 20148 50004
Observed Flight Rules
Jan-20 @ 11:56 UTC (an hour ago) Visual Flight Rules
Wind Visibility Clouds
330° at 4 knots 10 miles
  • Scattered at 18,000' AGL
  • Overcast at 23,000' AGL
Temperatures Readings
Current 15°C / 59°F
Dewpoint 15°C / 59°F
Humidity 100%
Altimeter 30.19" Hg
Pressure 1022.6 hPa
Elevation 2
METAR KHST 201156Z AUTO 33004KT 10SM SCT180 OVC230 15/15 A3019 RMK AO2 SLP226 T01540154 10159 20148 50004
Observed Flight Rules
Jan-20 @ 11:56 UTC
(an hour ago)
VFR
Wind Visibility
330° at 4 knots 10 miles
Clouds
  • Scattered at 18,000' AGL
  • Overcast at 23,000' AGL
Temperature Dewpoint
15°C / 59°F 15°C / 59°F
Humidity Altimeter Pressure
100% 30.19" Hg 1022.6 hPa